Latest Weather Observations for Bankstown

IDN60801

Issued at 2:02 pm EDT Monday 18 November 2019 (issued every 10 minutes, with the page automatically refreshed every 10 minutes)

About weather observations | Map of weather stations | Latest weather observations for NSW | Other Formats
Station Details ID: 066137 Name: BANKSTOWN AIRPORT AWS Lat: -33.92 Lon: 150.98 Height: 7.2 m
Data from the previous 72 hours. | See also: Recent months at Bankstown
Date/Time
EDT
Temp
°C
App
Temp
°C
Dew
Point
°C
Rel
Hum
%
Delta-T
°C
Wind Press
QNH
hPa
Press
MSL
hPa
Rain since
9am
mm
Dir  Spd
km/h
Gust
km/h
Spd
kts
Gust
kts
18/02:00pm 27.3 25.1 7.7 29 10.5 ENE 9 15 5 8 1013.7 1013.7 0.0
18/01:30pm 26.7 23.4 8.2 31 10.0 N 15 30 8 16 1014.5 1014.5 0.0
18/01:00pm 26.3 23.7 9.2 34 9.4 NNW 13 20 7 11 1015.1 1015.1 0.0
18/12:30pm 25.5 22.5 9.3 36 8.8 N 15 26 8 14 1015.7 1015.7 0.0
18/12:00pm 24.8 21.2 8.3 35 8.8 WNW 17 24 9 13 1016.5 1016.5 0.0
18/11:30am 23.8 21.1 9.0 39 8.0 NNW 13 22 7 12 1017.0 1017.0 0.0
18/11:00am 23.4 19.9 10.1 43 7.3 N 19 30 10 16 1017.7 1017.7 0.0
18/10:30am 22.0 19.3 10.5 48 6.3 NNW 15 24 8 13 1018.1 1018.1 0.0
18/10:00am 21.1 19.0 11.2 53 5.5 NNW 13 24 7 13 1018.7 1018.7 0.0
18/09:30am 21.4 19.5 11.7 54 5.4 NNW 13 20 7 11 1019.4 1019.4 0.0
18/09:00am 20.1 17.8 11.6 58 4.7 NNW 15 24 8 13 1019.5 1019.5 0.0
18/08:30am 19.1 18.1 12.4 65 3.7 NW 9 15 5 8 1019.7 1019.7 0.0
18/08:00am 18.2 17.7 12.2 68 3.3 NW 6 9 3 5 1019.5 1019.5 0.0
18/07:30am 16.8 17.5 12.1 74 2.6 CALM 0 0 0 0 1019.3 1019.3 0.0
18/07:00am 15.7 16.4 12.3 80 1.9 CALM 0 0 0 0 1019.1 1019.1 0.0
18/06:30am 14.7 15.5 12.4 86 1.3 CALM 0 0 0 0 1019.0 1019.0 0.0
18/06:00am 14.0 14.4 11.2 83 1.5 CALM 0 0 0 0 1018.8 1018.8 0.0
18/05:30am 14.8 15.4 11.8 82 1.6 CALM 0 0 0 0 1018.8 1018.8 0.0
18/05:00am 14.6 15.1 11.6 82 1.6 CALM 0 0 0 0 1018.7 1018.7 0.0
18/04:30am 14.6 15.0 11.4 81 1.7 CALM 0 0 0 0 1018.6 1018.6 0.0
18/04:00am 15.2 15.4 12.0 81 1.7 SE 2 6 1 3 1018.8 1018.8 0.0
18/03:30am 15.4 16.1 12.3 82 1.7 CALM 0 0 0 0 1019.1 1019.1 0.0
18/03:00am 15.5 16.1 11.9 79 1.9 CALM 0 0 0 0 1019.1 1019.1 0.0
18/02:30am 16.1 16.7 11.9 76 2.3 CALM 0 0 0 0 1019.5 1019.5 0.0
18/02:00am 16.3 16.9 11.9 75 2.4 CALM 0 0 0 0 1019.8 1019.8 0.0
18/01:30am 16.5 16.5 12.5 77 2.2 SE 4 7 2 4 1020.1 1020.1 0.0
18/01:00am 16.5 16.0 12.7 78 2.1 SE 7 9 4 5 1020.4 1020.4 0.0
18/12:30am 16.8 15.0 12.1 74 2.6 SE 13 17 7 9 1020.6 1020.6 0.0
18/12:00am 17.1 15.6 11.8 71 2.9 SE 11 19 6 10 1020.8 1020.8 0.0
 
Date/Time
EDT
Temp
°C
App
Temp
°C
Dew
Point
°C
Rel
Hum
%
Delta-T
°C
Wind Press
QNH
hPa
Press
MSL
hPa
Rain since
9am
mm
Dir  Spd
km/h
Gust
km/h
Spd
kts
Gust
kts
17/11:30pm 17.4 15.3 11.2 67 3.4 SE 13 17 7 9 1020.9 1020.9 0.0
17/11:00pm 17.6 14.9 10.5 63 3.8 ESE 15 22 8 12 1020.9 1020.9 0.0
17/10:30pm 17.8 14.9 10.9 64 3.7 ESE 17 22 9 12 1021.0 1021.0 0.0
17/10:00pm 17.9 14.9 10.8 63 3.8 ESE 17 24 9 13 1020.9 1020.9 0.0
17/09:30pm 17.9 15.0 11.0 64 3.7 ESE 17 24 9 13 1020.8 1020.8 0.0
17/09:00pm 17.9 14.6 10.8 63 3.8 ESE 19 24 10 13 1020.4 1020.4 0.0
17/08:30pm 17.7 15.8 11.7 68 3.3 ESE 13 19 7 10 1020.1 1020.1 0.0
17/08:00pm 17.5 14.3 11.8 69 3.1 SE 20 30 11 16 1019.7 1019.7 0.0
17/07:30pm 17.8 13.7 11.6 67 3.4 SE 24 32 13 17 1019.1 1019.1 0.0
17/07:00pm 17.9 13.8 11.5 66 3.5 SE 24 32 13 17 1018.7 1018.7 0.0
17/06:30pm 18.3 14.2 11.4 64 3.8 SE 24 33 13 18 1018.1 1018.1 0.0
17/06:00pm 18.6 13.9 11.9 65 3.7 SE 28 37 15 20 1017.6 1017.6 0.0
17/05:30pm 18.9 13.7 11.7 63 4.0 SE 30 37 16 20 1017.5 1017.5 0.0
17/05:00pm 19.2 14.0 11.7 62 4.1 ESE 30 35 16 19 1016.9 1016.9 0.0
17/04:30pm 19.7 14.2 11.7 60 4.4 ESE 32 41 17 22 1016.2 1016.2 0.0
17/04:00pm 19.7 14.1 11.5 59 4.5 SE 32 39 17 21 1015.9 1015.9 0.0
17/03:30pm 20.1 14.5 12.1 60 4.5 SE 33 41 18 22 1015.8 1015.8 0.0
17/03:00pm 21.0 15.0 12.2 57 4.9 SE 35 44 19 24 1015.7 1015.7 0.0
17/02:30pm 22.3 17.0 12.5 53 5.6 SE 32 50 17 27 1015.6 1015.6 0.0
17/02:29pm 21.5 16.2 12.4 56 5.1 SE 32 50 17 27 1015.5 1015.5 0.0
17/02:00pm 21.5 15.9 12.1 55 5.3 SE 33 46 18 25 1015.6 1015.6 0.0
17/01:30pm 22.3 17.1 13.4 57 5.1 ESE 33 44 18 24 1015.4 1015.4 0.0
17/01:00pm 22.1 16.8 12.4 54 5.5 SE 32 44 17 24 1015.5 1015.5 0.0
17/12:30pm 22.6 17.3 12.5 53 5.7 SE 32 43 17 23 1015.5 1015.5 0.0
17/12:00pm 23.4 18.5 13.6 54 5.7 SSE 32 41 17 22 1015.3 1015.3 0.0
17/11:30am 21.1 16.7 12.8 59 4.7 SE 28 35 15 19 1015.3 1015.3 0.0
17/11:00am 20.8 16.7 13.7 64 4.1 ESE 28 33 15 18 1015.4 1015.4 0.0
17/10:30am 21.0 17.2 13.7 63 4.2 SE 26 33 14 18 1015.4 1015.4 0.0
17/10:00am 20.4 17.1 14.1 67 3.6 SSE 24 32 13 17 1015.4 1015.4 0.0
17/09:30am 20.7 19.7 15.5 72 3.1 SSE 15 19 8 10 1015.4 1015.4 0.0
17/09:00am 19.4 18.3 14.4 73 2.9 S 13 35 7 19 1015.3 1015.3 0.0
17/08:30am 19.2 18.6 14.7 75 2.6 S 11 17 6 9 1015.0 1015.0 0.0
17/08:00am 18.6 17.5 14.3 76 2.5 S 13 19 7 10 1014.9 1014.9 0.0
17/07:30am 18.3 18.4 14.4 78 2.2 S 7 9 4 5 1014.7 1014.7 0.0
17/07:00am 17.8 18.0 14.3 80 2.0 SSW 6 9 3 5 1014.8 1014.8 0.0
17/06:30am 17.4 17.4 14.3 82 1.8 SW 7 9 4 5 1014.7 1014.7 0.0
17/06:00am 17.4 17.6 14.1 81 1.9 SSE 6 7 3 4 1014.5 1014.5 0.0
17/05:30am 17.3 16.9 14.0 81 1.9 S 9 11 5 6 1014.6 1014.6 0.0
17/05:00am 16.9 17.7 13.8 82 1.8 SSW 2 9 1 5 1014.4 1014.4 0.0
17/04:30am 17.0 17.0 13.7 81 1.9 SW 6 9 3 5 1014.5 1014.5 0.0
17/04:00am 17.5 17.4 14.0 80 2.0 SSW 7 9 4 5 1014.7 1014.7 0.0
17/03:30am 17.8 17.6 13.5 76 2.4 SE 7 9 4 5 1014.9 1014.9 0.0
17/03:00am 18.6 18.6 14.1 75 2.6 S 7 9 4 5 1015.2 1015.2 0.0
17/02:30am 18.7 18.6 14.0 74 2.7 SW 7 9 4 5 1015.5 1015.5 0.0
17/02:00am 19.2 20.4 13.8 71 3.1 CALM 0 0 0 0 1015.6 1015.6 0.0
17/01:30am 19.2 17.9 13.6 70 3.2 NE 13 17 7 9 1015.2 1015.2 0.0
17/01:00am 19.4 19.2 13.6 69 3.3 NE 7 13 4 7 1015.8 1015.8 0.0
17/12:30am 19.5 18.5 13.4 68 3.5 ENE 11 15 6 8 1015.9 1015.9 0.0
17/12:00am 19.6 19.3 13.3 67 3.6 NE 7 13 4 7 1016.7 1016.7 0.0
 
Date/Time
EDT
Temp
°C
App
Temp
°C
Dew
Point
°C
Rel
Hum
%
Delta-T
°C
Wind Press
QNH
hPa
Press
MSL
hPa
Rain since
9am
mm
Dir  Spd
km/h
Gust
km/h
Spd
kts
Gust
kts
16/11:30pm 19.6 18.9 13.3 67 3.6 NE 9 11 5 6 1017.0 1017.0 0.0
16/11:00pm 19.4 19.3 13.3 68 3.5 ENE 6 11 3 6 1016.8 1016.8 0.0
16/10:30pm 19.6 18.6 13.3 67 3.6 NE 11 15 6 8 1016.7 1016.7 0.0
16/10:00pm 19.6 18.9 13.1 66 3.7 NE 9 13 5 7 1016.8 1016.8 0.0
16/09:30pm 19.5 18.4 13.0 66 3.7 ENE 11 13 6 7 1016.6 1016.6 0.0
16/09:00pm 19.5 17.5 12.8 65 3.8 ENE 15 19 8 10 1016.3 1016.3 0.0
16/08:30pm 19.5 18.0 13.0 66 3.7 E 13 17 7 9 1015.7 1015.7 0.0
16/08:00pm 19.6 17.9 12.6 64 3.9 E 13 17 7 9 1015.5 1015.5 0.0
16/07:30pm 19.7 17.6 12.5 63 4.0 E 15 22 8 12 1015.0 1015.0 0.0
16/07:00pm 19.9 17.0 12.4 62 4.2 ESE 19 24 10 13 1014.5 1014.5 0.0
16/06:30pm 20.2 17.7 12.4 61 4.4 E 17 26 9 14 1014.2 1014.2 0.0
16/06:00pm 20.3 17.2 12.3 60 4.5 E 20 30 11 16 1014.0 1014.0 0.0
16/05:30pm 20.8 17.3 12.2 58 4.8 E 22 37 12 20 1013.8 1013.8 0.0
16/05:00pm 21.2 17.3 12.1 56 5.1 E 24 32 13 17 1013.7 1013.7 0.0
16/04:30pm 21.8 18.3 12.1 54 5.5 E 22 32 12 17 1013.6 1013.6 0.0
16/04:00pm 21.7 17.0 12.0 54 5.4 ESE 28 39 15 21 1013.7 1013.7 0.0
16/03:30pm 21.7 17.6 11.4 52 5.7 ESE 24 35 13 19 1014.0 1014.0 0.0
16/03:00pm 22.3 18.7 11.7 51 5.9 ESE 22 33 12 18 1014.2 1014.2 0.0
16/02:30pm 22.0 18.2 12.3 54 5.5 ESE 24 35 13 19 1014.7 1014.7 0.0
16/02:00pm 21.4 17.5 12.0 55 5.3 ESE 24 33 13 18 1014.9 1014.9 0.0
16/01:30pm 21.6 17.2 11.6 53 5.6 ESE 26 35 14 19 1015.1 1015.1 0.0
16/01:00pm 22.3 18.0 13.1 56 5.3 SE 28 37 15 20 1015.4 1015.4 0.0
16/12:30pm 22.3 18.7 12.0 52 5.8 ESE 22 30 12 16 1015.7 1015.7 0.0
16/12:00pm 22.2 18.7 12.2 53 5.6 ESE 22 30 12 16 1015.9 1015.9 0.0
16/11:30am 22.0 19.4 12.0 53 5.6 ESE 17 26 9 14 1016.1 1016.1 0.0
16/11:00am 21.9 18.8 12.2 54 5.5 ESE 20 28 11 15 1016.3 1016.3 0.0
16/10:30am 21.7 18.7 12.5 56 5.2 ESE 20 30 11 16 1016.3 1016.3 0.0
16/10:00am 21.5 18.9 13.2 59 4.7 ESE 19 28 10 15 1016.2 1016.2 0.0
16/09:30am 20.2 17.0 13.2 64 4.0 SE 22 30 12 16 1016.2 1016.2 0.0
16/09:00am 21.3 19.2 12.4 57 5.0 SE 15 22 8 12 1016.0 1016.0 0.0
16/08:30am 20.0 18.5 13.0 64 4.0 S 13 19 7 10 1016.1 1016.1 0.0
16/08:00am 19.3 18.5 12.8 66 3.7 SSE 9 15 5 8 1015.9 1015.9 0.0
16/07:30am 18.5 18.1 12.9 70 3.1 SW 7 11 4 6 1015.3 1015.3 0.0
16/07:00am 17.5 16.7 13.0 75 2.5 SW 9 11 5 6 1015.1 1015.1 0.0
16/06:30am 16.2 15.9 13.3 83 1.6 WSW 7 7 4 4 1014.8 1014.8 0.0
16/06:00am 15.0 14.5 12.5 85 1.4 SW 7 11 4 6 1014.3 1014.3 0.0
16/05:30am 15.8 15.3 12.7 82 1.7 SSW 7 11 4 6 1013.7 1013.7 0.0
16/05:00am 16.0 15.1 12.6 80 1.9 S 9 11 5 6 1013.3 1013.3 0.0
16/04:30am 16.3 15.2 12.1 76 2.3 S 9 11 5 6 1013.1 1013.1 0.0
16/04:00am 17.0 15.9 12.1 73 2.7 SSE 9 15 5 8 1013.0 1013.0 0.0
16/03:30am 17.2 15.8 12.3 73 2.7 SSE 11 17 6 9 1012.9 1012.9 0.0
16/03:00am 17.6 15.2 12.5 72 2.8 SSE 17 28 9 15 1012.8 1012.8 0.0
16/02:30am 17.6 15.1 12.3 71 2.9 S 17 24 9 13 1012.8 1012.8 0.0
16/02:00am 18.0 15.8 12.2 69 3.2 SSE 15 24 8 13 1012.5 1012.5 0.0
16/01:30am 18.3 16.4 11.8 66 3.6 SSE 13 17 7 9 1012.3 1012.3 0.0
16/01:00am 18.6 16.4 12.1 66 3.6 SE 15 20 8 11 1012.0 1012.0 0.0
16/12:30am 18.8 15.8 12.1 65 3.7 SE 19 24 10 13 1012.0 1012.0 0.0
16/12:00am 19.4 16.5 12.2 63 4.0 SE 19 24 10 13 1011.6 1011.6 0.0
 
Date/Time
EDT
Temp
°C
App
Temp
°C
Dew
Point
°C
Rel
Hum
%
Delta-T
°C
Wind Press
QNH
hPa
Press
MSL
hPa
Rain since
9am
mm
Dir  Spd
km/h
Gust
km/h
Spd
kts
Gust
kts
15/11:30pm 19.8 17.0 13.3 66 3.7 SE 20 28 11 15 1011.0 1011.0 0.0
15/11:00pm 20.6 17.6 13.8 65 3.9 ESE 22 30 12 16 1010.4 1010.4 0.0
15/10:54pm 20.9 18.4 13.4 62 4.3 ESE 19 26 10 14 1010.3 1010.3 0.0
15/10:30pm 25.9 22.6 -1.0 17 12.2 W 6 9 3 5 1009.8 1009.8 0.0
15/10:00pm 27.1 22.4 -1.7 15 13.1 W 13 19 7 10 1009.5 1009.5 0.0
15/09:30pm 27.8 21.6 -3.1 13 13.7 WNW 20 30 11 16 1009.0 1009.0 0.0
15/09:00pm 28.5 22.2 -3.6 12 14.2 WNW 20 32 11 17 1008.4 1008.4 0.0
15/08:30pm 28.7 23.4 -3.5 12 14.3 WNW 15 26 8 14 1007.8 1007.8 0.0
15/08:00pm 29.4 23.7 -4.1 11 14.9 WNW 17 28 9 15 1007.2 1007.2 0.0
15/07:30pm 30.0 23.6 -4.9 10 15.3 WNW 20 33 11 18 1006.7 1006.7 0.0
15/07:00pm 30.7 23.3 -7.3 8 16.1 WNW 24 37 13 20 1006.2 1006.2 0.0
15/06:30pm 31.6 24.3 -6.6 8 16.5 WNW 24 37 13 20 1005.6 1005.6 0.0
15/06:00pm 31.9 24.7 -4.9 9 16.4 W 24 37 13 20 1005.0 1005.0 0.0
15/05:30pm 32.8 25.6 -5.7 8 17.0 W 24 43 13 23 1004.7 1004.7 0.0
15/05:03pm 32.7 24.7 -5.8 8 17.0 W 28 48 15 26 1004.5 1004.5 0.0
15/05:00pm 33.0 25.4 -5.6 8 17.2 WNW 26 37 14 20 1004.5 1004.5 0.0
15/04:30pm 33.8 26.6 -5.0 8 17.5 W 24 37 13 20 1004.3 1004.3 0.0
15/04:00pm 33.7 27.5 -5.1 8 17.5 W 19 35 10 19 1004.3 1004.3 0.0
15/03:30pm 33.2 27.5 -3.9 9 17.0 NW 17 33 9 18 1004.5 1004.5 0.0
15/03:00pm 33.5 27.2 -3.7 9 17.2 WNW 20 33 11 18 1004.9 1004.9 0.0
15/02:30pm 32.5 26.3 -4.4 9 16.6 WNW 19 30 10 16 1005.3 1005.3 0.0

Other formats

Comma delimited format used in spreadsheet applications
http://www.bom.gov.au/fwo/IDN60801/IDN60801.94765.axf

JavaScript Object Notation format (JSON) in row-major order
http://www.bom.gov.au/fwo/IDN60801/IDN60801.94765.json

Data quality

Most of these data are generated automatically and are frequently updated. Quality checks on data are not normally performed. It is possible for incorrect values to appear. Refer to information at About Latest Weather Observations and please check the disclaimer before using these data.